createdAt,value
2019-02-28T00:00:07.744Z,35.97
2019-02-28T00:02:35.185Z,39.20
2019-02-28T00:05:05.811Z,36.77
2019-02-28T00:07:31.736Z,23.80
2019-02-28T00:09:59.359Z,33.13
2019-02-28T00:12:27.537Z,31.30
2019-02-28T00:14:55.059Z,39.23
2019-02-28T00:17:22.571Z,41.03
2019-02-28T00:19:50.101Z,42.97
2019-02-28T00:22:17.651Z,30.63
2019-02-28T00:24:45.155Z,40.73
2019-02-28T00:27:12.780Z,39.43
2019-02-28T00:29:40.357Z,44.03
2019-02-28T00:32:07.901Z,34.43
2019-02-28T00:34:36.335Z,43.73
2019-02-28T00:37:04.520Z,38.87
2019-02-28T00:39:34.817Z,43.33
2019-02-28T00:42:01.224Z,38.37
2019-02-28T00:44:31.242Z,32.83
2019-02-28T00:46:58.062Z,46.77
2019-02-28T00:49:25.426Z,45.73
2019-02-28T00:51:52.782Z,43.03
2019-02-28T00:54:20.316Z,43.83
2019-02-28T00:56:51.567Z,29.30
2019-02-28T00:59:17.259Z,46.90
2019-02-28T01:01:46.066Z,41.37
2019-02-28T01:04:13.980Z,50.77
2019-02-28T01:06:42.534Z,49.87
2019-02-28T01:09:10.512Z,49.03
2019-02-28T01:11:38.309Z,47.87
2019-02-28T01:14:06.820Z,45.90
2019-02-28T01:16:35.278Z,47.73
2019-02-28T01:19:02.807Z,48.90
2019-02-28T01:21:30.183Z,39.60
2019-02-28T01:24:00.677Z,39.47
2019-02-28T01:26:26.819Z,25.00
2019-02-28T01:28:54.203Z,33.17
2019-02-28T01:31:21.440Z,33.57
2019-02-28T01:33:48.777Z,41.17
2019-02-28T01:36:16.341Z,39.40
2019-02-28T01:38:43.615Z,36.33
2019-02-28T01:41:11.237Z,44.57
2019-02-28T01:43:39.420Z,48.87
2019-02-28T01:46:06.774Z,29.17
2019-02-28T01:48:34.120Z,34.47
2019-02-28T01:51:01.728Z,47.30
2019-02-28T01:53:29.503Z,48.77
2019-02-28T01:55:56.887Z,33.17
2019-02-28T01:58:24.384Z,37.23
2019-02-28T02:00:53.576Z,27.53
2019-02-28T02:03:20.968Z,42.30
2019-02-28T02:05:51.614Z,47.40
2019-02-28T02:08:17.710Z,36.93
2019-02-28T02:10:45.467Z,44.80
2019-02-28T02:13:12.699Z,39.67
2019-02-28T02:15:40.268Z,46.80
2019-02-28T02:18:09.321Z,43.97
2019-02-28T02:20:37.148Z,40.07
2019-02-28T02:23:04.581Z,48.27
2019-02-28T02:25:36.997Z,44.80
2019-02-28T02:28:01.253Z,42.80
2019-02-28T02:30:28.696Z,49.10
2019-02-28T02:32:56.383Z,48.13
2019-02-28T02:35:23.869Z,31.73
2019-02-28T02:37:51.330Z,40.17
2019-02-28T02:40:22.948Z,48.20
2019-02-28T02:42:49.795Z,35.00
2019-02-28T02:45:17.488Z,38.70
2019-02-28T02:47:44.885Z,46.33
2019-02-28T02:50:12.782Z,42.77
2019-02-28T02:52:52.628Z,45.20
2019-02-28T02:55:24.527Z,42.73
2019-02-28T02:57:51.737Z,45.73
2019-02-28T03:00:19.289Z,47.97
2019-02-28T03:02:47.125Z,46.57
2019-02-28T03:05:15.279Z,48.33
2019-02-28T03:07:43.331Z,48.63
2019-02-28T03:10:17.502Z,48.30
2019-02-28T03:12:42.362Z,44.63
2019-02-28T03:15:10.684Z,45.67
2019-02-28T03:17:38.127Z,43.60
2019-02-28T03:20:07.383Z,45.00
2019-02-28T03:22:35.941Z,44.93
2019-02-28T03:25:03.955Z,36.33
2019-02-28T03:27:31.327Z,42.57
2019-02-28T03:29:58.689Z,18.53
2019-02-28T03:32:26.003Z,38.13
2019-02-28T03:34:58.283Z,32.73
2019-02-28T03:37:22.473Z,27.30
2019-02-28T03:39:49.783Z,33.03
2019-02-28T03:42:17.148Z,43.90
2019-02-28T03:44:44.493Z,49.50
2019-02-28T03:47:11.857Z,21.23
2019-02-28T03:49:39.244Z,27.17
2019-02-28T03:52:06.944Z,25.23
2019-02-28T03:54:34.208Z,40.97
2019-02-28T03:57:01.554Z,34.67
2019-02-28T03:59:28.879Z,25.93
2019-02-28T04:01:56.201Z,22.20
2019-02-28T04:04:23.537Z,22.63
2019-02-28T04:06:50.761Z,28.30
2019-02-28T04:09:18.098Z,34.57
2019-02-28T04:11:45.326Z,23.40
2019-02-28T04:14:12.519Z,26.87
2019-02-28T04:16:39.892Z,32.10
2019-02-28T04:19:07.784Z,35.00
2019-02-28T04:21:34.887Z,39.83
2019-02-28T04:24:02.024Z,29.17
2019-02-28T04:26:30.034Z,26.30
2019-02-28T04:28:58.338Z,28.20
2019-02-28T04:31:25.562Z,29.50
2019-02-28T04:33:52.875Z,42.70
2019-02-28T04:36:20.185Z,26.37
2019-02-28T04:38:47.530Z,38.90
2019-02-28T04:41:14.770Z,16.20
2019-02-28T04:43:44.357Z,35.47
2019-02-28T04:46:11.166Z,37.00
2019-02-28T04:48:38.372Z,30.57
2019-02-28T04:51:06.540Z,37.00
2019-02-28T04:53:33.837Z,30.37
2019-02-28T04:56:01.140Z,46.33
2019-02-28T04:58:28.485Z,39.20
2019-02-28T05:00:55.831Z,29.40
2019-02-28T05:03:28.013Z,38.20
2019-02-28T05:05:52.317Z,26.70
2019-02-28T05:08:19.612Z,26.97
2019-02-28T05:10:46.847Z,27.07
2019-02-28T05:13:14.281Z,28.03
2019-02-28T05:15:42.275Z,33.47
2019-02-28T05:18:09.408Z,30.30
2019-02-28T05:20:36.733Z,34.63
2019-02-28T05:23:04.076Z,26.33
2019-02-28T05:25:31.367Z,20.00
2019-02-28T05:27:58.613Z,24.50
2019-02-28T05:30:25.824Z,25.77
2019-02-28T05:32:53.179Z,33.87
2019-02-28T05:35:25.182Z,31.83
2019-02-28T05:37:49.893Z,30.73
2019-02-28T05:40:17.217Z,31.50
2019-02-28T05:42:44.546Z,29.63
2019-02-28T05:45:14.816Z,30.50
2019-02-28T05:47:46.230Z,32.70
2019-02-28T05:50:15.506Z,28.93
2019-02-28T05:52:39.429Z,30.90
2019-02-28T05:55:06.940Z,31.33
2019-02-28T05:57:34.300Z,29.67
2019-02-28T06:00:02.994Z,28.90
2019-02-28T06:02:30.360Z,27.53
2019-02-28T06:04:57.580Z,28.30
2019-02-28T06:07:25.986Z,26.87
2019-02-28T06:09:53.883Z,28.67
2019-02-28T06:12:21.123Z,26.40
2019-02-28T06:14:48.357Z,25.83
2019-02-28T06:17:17.353Z,24.67
2019-02-28T06:19:44.905Z,26.37
2019-02-28T06:22:12.204Z,26.07
2019-02-28T06:24:39.511Z,25.07
2019-02-28T06:27:07.625Z,24.57
2019-02-28T06:29:36.715Z,23.60
2019-02-28T06:32:04.116Z,24.97
2019-02-28T06:34:33.329Z,24.37
2019-02-28T06:37:03.359Z,23.97
2019-02-28T06:39:29.468Z,23.43
2019-02-28T06:41:56.786Z,23.93
2019-02-28T06:44:24.219Z,22.23
2019-02-28T06:46:53.219Z,20.40
2019-02-28T06:49:20.417Z,21.23
2019-02-28T06:51:48.438Z,20.33
2019-02-28T06:54:16.667Z,22.23
2019-02-28T06:56:43.998Z,21.80
2019-02-28T06:59:11.287Z,21.57
2019-02-28T07:01:38.614Z,19.70
2019-02-28T07:04:05.866Z,20.60
2019-02-28T07:06:35.640Z,20.30
2019-02-28T07:09:03.078Z,18.57
2019-02-28T07:11:30.484Z,19.93
2019-02-28T07:13:57.779Z,19.43
2019-02-28T07:16:25.112Z,19.97
2019-02-28T07:18:53.745Z,16.33
2019-02-28T07:21:21.157Z,15.63
2019-02-28T07:23:48.346Z,13.60
2019-02-28T07:26:18.802Z,13.80
2019-02-28T07:28:44.703Z,12.20
2019-02-28T07:31:11.972Z,10.93
2019-02-28T07:33:41.339Z,10.27
2019-02-28T07:36:09.333Z,8.97
2019-02-28T07:38:37.428Z,8.77
2019-02-28T07:41:04.736Z,8.10
2019-02-28T07:43:32.065Z,8.37
2019-02-28T07:45:59.362Z,8.10
2019-02-28T07:48:29.916Z,7.70
2019-02-28T07:50:55.806Z,7.77
2019-02-28T07:53:23.143Z,7.50
2019-02-28T07:55:50.348Z,7.17
2019-02-28T07:58:17.567Z,7.27
2019-02-28T08:00:44.763Z,5.57
2019-02-28T08:03:12.096Z,5.30
2019-02-28T08:05:39.521Z,5.57
2019-02-28T08:08:06.723Z,3.97
2019-02-28T08:10:34.173Z,4.47
2019-02-28T08:13:03.165Z,3.80
2019-02-28T08:15:30.633Z,3.50
2019-02-28T08:17:57.928Z,2.80
2019-02-28T08:20:25.187Z,2.40
2019-02-28T08:22:52.556Z,2.50
2019-02-28T08:25:19.863Z,2.73
2019-02-28T08:27:47.176Z,2.60
2019-02-28T08:30:16.305Z,2.30
2019-02-28T08:32:47.115Z,2.30
2019-02-28T08:35:14.377Z,1.97
2019-02-28T08:37:41.718Z,1.63
2019-02-28T08:40:12.572Z,1.73
2019-02-28T08:42:40.744Z,1.60
2019-02-28T08:45:10.786Z,1.60
2019-02-28T08:47:38.191Z,1.27
2019-02-28T08:50:07.583Z,1.30
2019-02-28T08:52:37.685Z,1.00
2019-02-28T08:55:07.750Z,0.87
2019-02-28T08:57:34.072Z,1.03
2019-02-28T09:00:01.215Z,0.90
2019-02-28T09:02:30.316Z,1.07
2019-02-28T09:04:57.576Z,0.90
2019-02-28T09:07:24.931Z,1.10
2019-02-28T09:09:52.241Z,0.97
2019-02-28T09:12:19.575Z,0.90
2019-02-28T09:14:46.867Z,0.80
2019-02-28T09:17:15.517Z,0.70
2019-02-28T09:19:43.323Z,1.00
2019-02-28T09:22:10.568Z,0.70
2019-02-28T09:24:37.888Z,0.60
2019-02-28T09:27:05.135Z,0.50
2019-02-28T09:29:32.464Z,0.80
2019-02-28T09:31:59.705Z,0.60
2019-02-28T09:34:27.026Z,0.70
2019-02-28T09:36:56.633Z,0.60
2019-02-28T09:39:23.464Z,0.63
2019-02-28T09:41:50.761Z,0.80
2019-02-28T09:44:17.988Z,0.70
2019-02-28T09:46:47.518Z,0.70
2019-02-28T09:49:14.353Z,0.70
2019-02-28T09:51:42.543Z,0.80
2019-02-28T09:54:09.777Z,0.57
2019-02-28T09:56:37.106Z,0.60
2019-02-28T09:59:04.370Z,0.40
2019-02-28T10:01:31.616Z,0.70
2019-02-28T10:03:58.896Z,0.60
2019-02-28T10:06:26.232Z,0.60
2019-02-28T10:08:53.525Z,0.60
2019-02-28T10:11:21.788Z,0.80
2019-02-28T10:13:49.474Z,0.70
2019-02-28T10:16:18.196Z,0.60
2019-02-28T10:18:45.560Z,0.40
2019-02-28T10:21:12.773Z,0.47
2019-02-28T10:23:40.099Z,0.40
2019-02-28T10:26:08.097Z,0.40
2019-02-28T10:28:35.327Z,0.40
2019-02-28T10:31:02.631Z,0.30
2019-02-28T10:33:29.944Z,0.50
2019-02-28T10:35:57.248Z,0.30
2019-02-28T10:38:24.543Z,0.43
2019-02-28T10:40:52.361Z,0.40
2019-02-28T10:43:20.525Z,0.30
2019-02-28T10:45:47.730Z,0.40
2019-02-28T10:48:15.148Z,0.50
2019-02-28T10:50:42.515Z,0.30
2019-02-28T10:53:09.868Z,0.40
2019-02-28T10:55:37.271Z,0.33
2019-02-28T10:58:04.686Z,0.17
2019-02-28T11:00:33.706Z,0.50
2019-02-28T11:03:01.133Z,0.50
2019-02-28T11:05:29.692Z,0.30
2019-02-28T11:07:57.091Z,0.40
2019-02-28T11:10:34.792Z,0.50
2019-02-28T11:12:58.335Z,0.50
2019-02-28T11:15:25.641Z,0.30
2019-02-28T11:17:53.079Z,0.47
2019-02-28T11:20:22.361Z,0.50
2019-02-28T11:22:50.183Z,0.30
2019-02-28T11:25:17.768Z,0.30
2019-02-28T11:27:45.228Z,0.40
2019-02-28T11:30:13.752Z,0.40
2019-02-28T11:32:41.340Z,0.47
2019-02-28T11:35:08.664Z,0.40
2019-02-28T11:37:35.972Z,0.30
2019-02-28T11:40:05.492Z,0.40
2019-02-28T11:42:32.731Z,0.30
2019-02-28T11:44:59.963Z,0.40
2019-02-28T11:47:27.195Z,0.20
2019-02-28T11:49:54.415Z,0.20
2019-02-28T11:52:24.504Z,0.40
2019-02-28T11:54:50.816Z,0.37
2019-02-28T11:57:18.121Z,0.30
2019-02-28T11:59:45.457Z,0.20
2019-02-28T12:02:12.796Z,0.30
2019-02-28T12:04:40.456Z,0.20
2019-02-28T12:07:08.376Z,0.30
2019-02-28T12:09:35.674Z,0.50
2019-02-28T12:12:03.020Z,0.30
2019-02-28T12:14:30.316Z,0.33
2019-02-28T12:16:57.549Z,0.20
2019-02-28T12:19:24.723Z,0.10
2019-02-28T12:21:51.949Z,0.13
2019-02-28T12:24:19.164Z,0.30
2019-02-28T12:26:49.406Z,0.30
2019-02-28T12:29:15.521Z,0.20
2019-02-28T12:31:42.903Z,0.20
2019-02-28T12:34:10.052Z,0.23
2019-02-28T12:36:37.345Z,0.20
2019-02-28T12:39:06.773Z,0.30
2019-02-28T12:41:34.067Z,0.20
2019-02-28T12:44:01.193Z,0.10
2019-02-28T12:46:31.839Z,0.10
2019-02-28T12:48:57.531Z,0.40
2019-02-28T12:51:24.824Z,0.30
2019-02-28T12:53:52.060Z,0.27
2019-02-28T12:56:19.372Z,0.10
2019-02-28T12:58:46.763Z,0.23
2019-02-28T13:01:14.033Z,0.20
2019-02-28T13:03:41.342Z,0.23
2019-02-28T13:06:08.690Z,0.20
2019-02-28T13:08:38.717Z,0.20
2019-02-28T13:11:05.259Z,0.20
2019-02-28T13:13:32.559Z,0.20
2019-02-28T13:15:59.901Z,0.20
2019-02-28T13:18:27.265Z,0.20
2019-02-28T13:20:54.612Z,0.10
2019-02-28T13:23:21.729Z,0.10
2019-02-28T13:25:49.063Z,0.20
2019-02-28T13:28:17.689Z,0.10
2019-02-28T13:30:50.361Z,0.37
2019-02-28T13:33:16.164Z,0.30
2019-02-28T13:35:47.150Z,0.17
2019-02-28T13:38:17.701Z,0.07
2019-02-28T13:40:44.726Z,0.33
2019-02-28T13:43:19.715Z,0.30
2019-02-28T13:45:40.486Z,0.13
2019-02-28T13:48:09.879Z,0.30
2019-02-28T13:50:36.941Z,0.30
2019-02-28T13:53:17.598Z,0.27
2019-02-28T13:55:35.189Z,0.20
2019-02-28T13:58:02.987Z,0.10
2019-02-28T14:00:30.347Z,0.30
2019-02-28T14:02:59.278Z,0.10
2019-02-28T14:05:26.604Z,0.10
2019-02-28T14:07:53.756Z,0.10
2019-02-28T14:10:22.121Z,0.10
2019-02-28T14:12:53.167Z,0.20
2019-02-28T14:15:20.559Z,0.10
2019-02-28T14:17:47.836Z,0.17
2019-02-28T14:20:15.321Z,0.00
2019-02-28T14:22:42.780Z,0.10
2019-02-28T14:25:11.769Z,0.20
2019-02-28T14:27:39.108Z,0.13
2019-02-28T14:30:08.388Z,0.20
2019-02-28T14:32:38.673Z,0.10
2019-02-28T14:35:05.863Z,0.17
2019-02-28T14:37:33.167Z,0.10
2019-02-28T14:40:00.475Z,0.10
2019-02-28T14:42:27.889Z,0.03
2019-02-28T14:44:55.088Z,0.00
2019-02-28T14:47:24.808Z,0.10
2019-02-28T14:49:52.775Z,0.03
2019-02-28T14:52:19.945Z,0.10
2019-02-28T14:54:47.170Z,0.00
2019-02-28T14:57:16.644Z,0.00
2019-02-28T14:59:43.555Z,0.00
2019-02-28T15:02:10.761Z,0.10
2019-02-28T15:04:39.788Z,0.00
2019-02-28T15:07:07.403Z,0.10
2019-02-28T15:09:34.644Z,0.07
2019-02-28T15:12:01.866Z,0.10
2019-02-28T15:14:29.199Z,0.10
2019-02-28T15:16:56.535Z,0.10
2019-02-28T15:19:24.430Z,0.00
2019-02-28T15:21:52.544Z,0.07
2019-02-28T15:24:19.885Z,0.10
2019-02-28T15:26:47.179Z,0.00
2019-02-28T15:29:14.420Z,0.10
2019-02-28T15:31:43.486Z,0.10
2019-02-28T15:34:10.776Z,0.10
2019-02-28T15:36:37.992Z,0.13
2019-02-28T15:39:06.210Z,0.10
2019-02-28T15:41:34.659Z,0.10
2019-02-28T15:44:02.128Z,0.30
2019-02-28T15:46:29.432Z,0.20
2019-02-28T15:48:56.668Z,0.07
2019-02-28T15:51:25.632Z,0.00
2019-02-28T15:53:53.139Z,0.20
2019-02-28T15:56:20.865Z,0.00
2019-02-28T15:58:48.197Z,0.10
2019-02-28T16:01:15.492Z,0.07
2019-02-28T16:03:42.858Z,0.10
2019-02-28T16:06:10.081Z,0.10
2019-02-28T16:08:37.436Z,0.20
2019-02-28T16:11:06.234Z,0.10
2019-02-28T16:13:33.907Z,0.10
2019-02-28T16:16:01.248Z,0.00
2019-02-28T16:18:28.647Z,0.20
2019-02-28T16:20:55.905Z,0.03
2019-02-28T16:23:27.039Z,0.10
2019-02-28T16:25:52.452Z,0.20
2019-02-28T16:28:19.897Z,0.10
2019-02-28T16:30:47.216Z,0.10
2019-02-28T16:33:14.620Z,0.10
2019-02-28T16:35:41.953Z,0.20
2019-02-28T16:38:09.883Z,0.10
2019-02-28T16:40:38.457Z,0.10
2019-02-28T16:43:05.668Z,0.20
2019-02-28T16:45:40.935Z,0.10
2019-02-28T16:48:08.254Z,0.17
2019-02-28T16:50:35.672Z,0.20
2019-02-28T16:53:03.303Z,0.10
2019-02-28T16:55:31.685Z,0.20
2019-02-28T16:57:59.020Z,0.10
2019-02-28T17:00:26.333Z,0.10
2019-02-28T17:02:53.714Z,0.03
2019-02-28T17:05:26.691Z,0.10
2019-02-28T17:07:50.495Z,0.10
2019-02-28T17:10:21.136Z,0.10
2019-02-28T17:13:16.595Z,0.23
2019-02-28T17:16:18.562Z,0.10
2019-02-28T17:18:46.074Z,0.10
2019-02-28T17:21:17.931Z,0.20
2019-02-28T17:23:42.573Z,0.20
2019-02-28T17:26:09.868Z,0.10
2019-02-28T17:28:46.579Z,0.00
2019-02-28T17:31:31.859Z,0.00
2019-02-28T17:33:59.208Z,0.10
2019-02-28T17:36:26.524Z,0.17
2019-02-28T17:38:53.889Z,0.40
2019-02-28T17:41:21.280Z,0.43
2019-02-28T17:44:15.448Z,0.40
2019-02-28T17:46:43.118Z,0.63
2019-02-28T17:49:51.373Z,0.70
2019-02-28T17:52:24.264Z,0.40
2019-02-28T17:55:09.580Z,0.40
2019-02-28T17:57:57.152Z,0.50
2019-02-28T18:01:11.181Z,0.30
2019-02-28T18:04:20.996Z,0.50
2019-02-28T18:07:11.796Z,0.50
2019-02-28T18:09:50.790Z,0.30
2019-02-28T18:12:51.844Z,0.30
2019-02-28T18:15:23.300Z,0.30
2019-02-28T18:18:47.148Z,0.30
2019-02-28T18:21:41.071Z,0.10
2019-02-28T18:24:52.882Z,0.03
2019-02-28T18:27:29.432Z,0.00
2019-02-28T18:30:52.087Z,0.07
2019-02-28T18:33:19.578Z,0.10
2019-02-28T18:35:46.912Z,0.20
2019-02-28T18:38:14.252Z,0.10
2019-02-28T18:40:41.586Z,0.10
2019-02-28T18:43:08.925Z,0.40
2019-02-28T18:45:36.260Z,0.23
2019-02-28T18:48:03.689Z,0.50
2019-02-28T18:50:30.899Z,0.70
2019-02-28T18:52:58.205Z,0.90
2019-02-28T18:55:34.401Z,1.27
2019-02-28T18:57:54.747Z,4.40
2019-02-28T19:00:22.188Z,14.97
2019-02-28T19:02:49.500Z,4.93
2019-02-28T19:05:16.817Z,6.83
2019-02-28T19:07:44.014Z,7.27
2019-02-28T19:10:11.351Z,6.77
2019-02-28T19:12:38.592Z,9.27
2019-02-28T19:15:06.051Z,6.83
2019-02-28T19:17:33.180Z,9.07
2019-02-28T19:20:00.533Z,9.67
2019-02-28T19:22:27.830Z,9.10
2019-02-28T19:24:55.144Z,7.23
2019-02-28T19:27:22.433Z,6.60
2019-02-28T19:29:49.851Z,5.50
2019-02-28T19:32:17.191Z,4.07
2019-02-28T19:34:45.839Z,3.00
2019-02-28T19:37:13.234Z,1.70
2019-02-28T19:39:40.572Z,0.70
2019-02-28T19:42:07.798Z,0.60
2019-02-28T19:44:35.017Z,0.53
2019-02-28T19:47:02.521Z,0.50
2019-02-28T19:49:29.844Z,1.80
2019-02-28T19:51:57.093Z,1.97
2019-02-28T19:54:24.403Z,3.23
2019-02-28T19:56:51.653Z,2.60
2019-02-28T19:59:18.994Z,2.40
2019-02-28T20:01:46.296Z,2.60
2019-02-28T20:04:15.352Z,2.20
2019-02-28T20:06:42.692Z,2.43
2019-02-28T20:09:10.447Z,1.60
2019-02-28T20:11:37.781Z,1.10
2019-02-28T20:14:05.242Z,0.80
2019-02-28T20:16:32.468Z,0.77
2019-02-28T20:18:59.681Z,0.57
2019-02-28T20:21:27.116Z,1.00
2019-02-28T20:23:54.678Z,0.50
2019-02-28T20:26:22.119Z,0.30
2019-02-28T20:28:49.432Z,0.57
2019-02-28T20:31:16.652Z,0.30
2019-02-28T20:33:44.013Z,1.03
2019-02-28T20:36:11.320Z,1.27
2019-02-28T20:38:38.712Z,1.50
2019-02-28T20:41:06.050Z,1.70
2019-02-28T20:43:33.273Z,1.43
2019-02-28T20:46:00.616Z,1.40
2019-02-28T20:48:27.939Z,1.30
2019-02-28T20:50:55.202Z,1.33
2019-02-28T20:53:22.508Z,1.20
2019-02-28T20:55:49.880Z,0.80
2019-02-28T20:58:17.147Z,1.00
2019-02-28T21:00:44.405Z,0.90
2019-02-28T21:03:11.644Z,0.77
2019-02-28T21:05:38.978Z,0.77
2019-02-28T21:08:06.323Z,0.80
2019-02-28T21:10:33.613Z,0.63
2019-02-28T21:13:00.949Z,0.80
2019-02-28T21:15:28.551Z,0.60
2019-02-28T21:17:55.895Z,0.63
2019-02-28T21:20:23.091Z,0.70
2019-02-28T21:22:50.400Z,0.80
2019-02-28T21:25:17.857Z,0.90
2019-02-28T21:27:45.091Z,1.00
2019-02-28T21:30:15.099Z,1.03
2019-02-28T21:32:42.332Z,1.20
2019-02-28T21:35:10.116Z,1.10
2019-02-28T21:37:37.420Z,0.90
2019-02-28T21:40:05.319Z,1.00
2019-02-28T21:42:32.643Z,1.70
2019-02-28T21:44:59.792Z,1.40
2019-02-28T21:47:27.076Z,1.90
2019-02-28T21:49:54.310Z,1.90
2019-02-28T21:52:21.647Z,1.60
2019-02-28T21:54:48.967Z,1.80
2019-02-28T21:57:16.311Z,1.97
2019-02-28T21:59:43.566Z,1.70
2019-02-28T22:02:10.900Z,1.77
2019-02-28T22:04:38.125Z,1.83
2019-02-28T22:07:05.480Z,1.80
2019-02-28T22:09:32.723Z,1.77
2019-02-28T22:12:00.028Z,1.80
2019-02-28T22:14:27.361Z,1.80
2019-02-28T22:16:54.670Z,1.80
2019-02-28T22:19:21.903Z,1.50
2019-02-28T22:21:49.144Z,1.40
2019-02-28T22:24:16.472Z,1.83
2019-02-28T22:26:44.016Z,1.97
2019-02-28T22:29:11.230Z,1.70
2019-02-28T22:31:56.792Z,1.57
2019-02-28T22:34:35.271Z,1.60
2019-02-28T22:37:02.586Z,1.40
2019-02-28T22:39:33.053Z,1.30
2019-02-28T22:42:00.384Z,1.30
2019-02-28T22:44:27.736Z,1.37
2019-02-28T22:46:55.070Z,1.70
2019-02-28T22:49:22.369Z,1.60
2019-02-28T22:51:49.583Z,1.47
2019-02-28T22:54:16.925Z,1.47
2019-02-28T22:56:44.233Z,1.20
2019-02-28T22:59:11.591Z,1.10
2019-02-28T23:01:39.111Z,0.97
2019-02-28T23:04:06.461Z,0.87
2019-02-28T23:06:33.772Z,1.17
2019-02-28T23:09:01.112Z,1.83
2019-02-28T23:11:28.415Z,1.50
2019-02-28T23:13:55.752Z,1.20
2019-02-28T23:16:23.291Z,1.23
2019-02-28T23:18:50.588Z,1.40
2019-02-28T23:21:17.915Z,1.23
2019-02-28T23:23:45.140Z,1.30
2019-02-28T23:26:13.655Z,1.30
2019-02-28T23:29:03.964Z,1.37
2019-02-28T23:31:54.639Z,1.27
2019-02-28T23:34:28.584Z,1.20
2019-02-28T23:36:55.923Z,1.40
2019-02-28T23:39:23.242Z,1.23
2019-02-28T23:41:50.583Z,1.00
2019-02-28T23:44:17.792Z,1.27
2019-02-28T23:46:45.095Z,1.10
2019-02-28T23:49:12.355Z,1.20
2019-02-28T23:51:39.676Z,1.13
2019-02-28T23:54:07.188Z,1.07
2019-02-28T23:56:34.591Z,1.20
2019-02-28T23:59:01.931Z,1.10
